createdAt,value
2022-09-20T00:00:12.140Z,2.52
2022-09-20T00:00:45.497Z,2.67
2022-09-20T00:01:21.189Z,2.30
2022-09-20T00:01:53.523Z,2.05
2022-09-20T00:02:26.507Z,2.33
2022-09-20T00:02:59.052Z,2.72
2022-09-20T00:03:31.386Z,2.28
2022-09-20T00:04:05.813Z,2.55
2022-09-20T00:04:38.532Z,2.20
2022-09-20T00:05:11.176Z,2.88
2022-09-20T00:05:44.991Z,2.70
2022-09-20T00:06:19.010Z,2.42
2022-09-20T00:06:51.429Z,2.50
2022-09-20T00:07:23.798Z,2.70
2022-09-20T00:07:56.245Z,2.47
2022-09-20T00:08:28.929Z,2.63
2022-09-20T00:09:03.158Z,2.50
2022-09-20T00:09:35.660Z,2.20
2022-09-20T00:10:08.528Z,2.30
2022-09-20T00:10:40.998Z,2.50
2022-09-20T00:11:18.680Z,2.22
2022-09-20T00:11:51.723Z,2.78
2022-09-20T00:12:24.187Z,2.35
2022-09-20T00:12:56.588Z,2.58
2022-09-20T00:13:29.151Z,2.36
2022-09-20T00:14:02.642Z,2.50
2022-09-20T00:14:34.918Z,2.80
2022-09-20T00:15:07.446Z,2.67
2022-09-20T00:15:46.227Z,2.76
2022-09-20T00:16:23.126Z,2.64
2022-09-20T00:16:55.555Z,2.46
2022-09-20T00:17:27.925Z,2.70
2022-09-20T00:18:00.605Z,2.78
2022-09-20T00:18:33.098Z,2.80
2022-09-20T00:19:06.131Z,2.52
2022-09-20T00:19:38.782Z,2.58
2022-09-20T00:20:11.530Z,2.58
2022-09-20T00:20:47.080Z,2.80
2022-09-20T00:21:20.525Z,2.60
2022-09-20T00:21:53.194Z,2.60
2022-09-20T00:22:25.707Z,2.95
2022-09-20T00:22:58.371Z,2.25
2022-09-20T00:23:31.145Z,2.47
2022-09-20T00:24:03.679Z,2.70
2022-09-20T00:24:36.973Z,2.58
2022-09-20T00:25:09.466Z,2.60
2022-09-20T00:25:42.451Z,2.20
2022-09-20T00:26:15.093Z,2.63
2022-09-20T00:26:47.755Z,2.90
2022-09-20T00:27:20.029Z,2.67
2022-09-20T00:27:52.320Z,2.50
2022-09-20T00:28:25.025Z,2.75
2022-09-20T00:28:57.656Z,2.78
2022-09-20T00:29:30.202Z,2.47
2022-09-20T00:30:02.633Z,2.88
2022-09-20T00:30:35.497Z,2.88
2022-09-20T00:31:08.273Z,2.85
2022-09-20T00:31:43.491Z,2.70
2022-09-20T00:32:16.059Z,2.80
2022-09-20T00:32:48.384Z,2.30
2022-09-20T00:33:21.278Z,2.40
2022-09-20T00:34:15.585Z,2.58
2022-09-20T00:35:06.394Z,2.92
2022-09-20T00:35:38.735Z,2.08
2022-09-20T00:36:11.088Z,2.75
2022-09-20T00:36:43.828Z,2.70
2022-09-20T00:37:16.158Z,2.70
2022-09-20T00:37:48.532Z,3.00
2022-09-20T00:38:20.988Z,3.18
2022-09-20T00:39:00.414Z,2.98
2022-09-20T00:39:32.828Z,2.75
2022-09-20T00:40:05.974Z,2.82
2022-09-20T00:40:38.512Z,2.90
2022-09-20T00:41:11.322Z,2.38
2022-09-20T00:41:43.818Z,2.50
2022-09-20T00:42:16.588Z,2.78
2022-09-20T00:42:49.505Z,2.80
2022-09-20T00:43:35.840Z,2.70
2022-09-20T00:44:26.957Z,3.00
2022-09-20T00:44:59.431Z,2.52
2022-09-20T00:45:32.294Z,3.05
2022-09-20T00:46:05.435Z,2.42
2022-09-20T00:46:43.128Z,2.66
2022-09-20T00:47:22.040Z,2.70
2022-09-20T00:47:54.312Z,2.85
2022-09-20T00:48:29.574Z,2.30
2022-09-20T00:49:05.314Z,2.92
2022-09-20T00:49:38.151Z,2.58
2022-09-20T00:50:19.638Z,2.60
2022-09-20T00:50:55.015Z,2.28
2022-09-20T00:51:29.730Z,2.58
2022-09-20T00:52:02.391Z,2.44
2022-09-20T00:52:36.212Z,2.92
2022-09-20T00:53:14.169Z,2.08
2022-09-20T00:53:49.331Z,2.78
2022-09-20T00:54:21.810Z,2.60
2022-09-20T00:54:54.494Z,2.80
2022-09-20T00:55:27.400Z,3.10
2022-09-20T00:56:01.782Z,2.76
2022-09-20T00:56:36.377Z,2.70
2022-09-20T00:57:08.860Z,2.72
2022-09-20T00:57:42.018Z,2.70
2022-09-20T00:58:14.879Z,2.60
2022-09-20T00:58:51.298Z,2.95
2022-09-20T00:59:38.781Z,2.60
2022-09-20T01:00:11.633Z,2.78
2022-09-20T01:00:45.155Z,2.60
2022-09-20T01:01:18.186Z,2.90
2022-09-20T01:01:53.002Z,2.75
2022-09-20T01:02:27.943Z,2.60
2022-09-20T01:03:03.598Z,3.28
2022-09-20T01:03:36.804Z,2.67
2022-09-20T01:04:09.086Z,2.65
2022-09-20T01:04:42.790Z,2.65
2022-09-20T01:05:15.966Z,2.83
2022-09-20T01:05:48.304Z,2.78
2022-09-20T01:06:20.846Z,2.90
2022-09-20T01:06:54.585Z,2.90
2022-09-20T01:07:27.658Z,2.75
2022-09-20T01:07:59.988Z,2.75
2022-09-20T01:08:33.697Z,3.17
2022-09-20T01:09:07.627Z,2.75
2022-09-20T01:09:40.007Z,2.60
2022-09-20T01:10:12.366Z,2.55
2022-09-20T01:10:44.802Z,2.70
2022-09-20T01:11:17.405Z,2.70
2022-09-20T01:11:50.858Z,2.50
2022-09-20T01:12:26.345Z,2.90
2022-09-20T01:12:58.849Z,2.80
2022-09-20T01:13:31.268Z,3.00
2022-09-20T01:14:03.842Z,2.50
2022-09-20T01:14:36.243Z,2.48
2022-09-20T01:15:09.682Z,2.64
2022-09-20T01:15:42.505Z,2.60
2022-09-20T01:16:16.346Z,2.80
2022-09-20T01:16:48.871Z,2.53
2022-09-20T01:17:23.124Z,2.90
2022-09-20T01:17:56.882Z,3.02
2022-09-20T01:18:30.217Z,2.72
2022-09-20T01:19:08.774Z,2.75
2022-09-20T01:19:59.004Z,2.90
2022-09-20T01:20:32.462Z,2.60
2022-09-20T01:21:06.262Z,3.05
2022-09-20T01:21:38.628Z,2.88
2022-09-20T01:22:22.505Z,2.60
2022-09-20T01:23:13.493Z,2.60
2022-09-20T01:23:52.071Z,2.60
2022-09-20T01:24:51.038Z,2.80
2022-09-20T01:25:38.166Z,2.60
2022-09-20T01:26:22.434Z,2.47
2022-09-20T01:26:58.521Z,2.60
2022-09-20T01:27:36.935Z,2.90
2022-09-20T01:28:09.436Z,2.90
2022-09-20T01:28:43.970Z,2.50
2022-09-20T01:29:36.898Z,2.92
2022-09-20T01:30:12.598Z,2.72
2022-09-20T01:30:51.990Z,2.54
2022-09-20T01:31:29.586Z,3.13
2022-09-20T01:32:03.637Z,2.66
2022-09-20T01:32:43.222Z,2.64
2022-09-20T01:33:18.897Z,2.75
2022-09-20T01:34:01.280Z,2.95
2022-09-20T01:34:34.956Z,3.20
2022-09-20T01:35:08.483Z,3.35
2022-09-20T01:35:42.168Z,3.30
2022-09-20T01:36:18.498Z,3.65
2022-09-20T01:36:55.602Z,2.97
2022-09-20T01:37:33.274Z,3.15
2022-09-20T01:38:12.444Z,3.63
2022-09-20T01:38:48.640Z,3.55
2022-09-20T01:39:30.214Z,3.66
2022-09-20T01:40:10.846Z,3.28
2022-09-20T01:41:04.216Z,3.47
2022-09-20T01:41:57.965Z,3.54
2022-09-20T01:42:33.188Z,3.25
2022-09-20T01:43:05.657Z,3.13
2022-09-20T01:43:49.867Z,3.50
2022-09-20T01:44:22.350Z,2.66
2022-09-20T01:45:06.985Z,2.96
2022-09-20T01:45:41.823Z,3.40
2022-09-20T01:46:24.952Z,3.40
2022-09-20T01:47:01.775Z,3.40
2022-09-20T01:47:40.678Z,3.02
2022-09-20T01:48:18.731Z,3.24
2022-09-20T01:48:52.155Z,3.14
2022-09-20T01:49:43.166Z,3.24
2022-09-20T01:50:23.036Z,3.12
2022-09-20T01:50:55.267Z,3.13
2022-09-20T01:51:30.518Z,3.17
2022-09-20T01:52:17.635Z,2.94
2022-09-20T01:52:52.615Z,3.12
2022-09-20T01:53:27.574Z,3.26
2022-09-20T01:54:05.713Z,3.12
2022-09-20T01:54:49.860Z,2.96
2022-09-20T01:55:45.528Z,3.76
2022-09-20T01:56:36.514Z,3.06
2022-09-20T01:57:11.747Z,2.88
2022-09-20T01:57:44.254Z,3.38
2022-09-20T01:58:16.731Z,3.18
2022-09-20T01:59:22.443Z,2.46
2022-09-20T02:00:03.389Z,2.76
2022-09-20T02:00:40.284Z,3.12
2022-09-20T02:01:12.667Z,3.16
2022-09-20T02:01:54.192Z,3.65
2022-09-20T02:02:45.439Z,3.42
2022-09-20T02:03:20.410Z,2.60
2022-09-20T02:03:52.889Z,2.94
2022-09-20T02:04:25.196Z,3.24
2022-09-20T02:05:00.380Z,3.30
2022-09-20T02:05:33.057Z,3.38
2022-09-20T02:06:08.361Z,2.58
2022-09-20T02:07:05.711Z,2.88
2022-09-20T02:07:40.675Z,3.06
2022-09-20T02:08:30.831Z,3.20
2022-09-20T02:09:03.306Z,2.80
2022-09-20T02:09:41.938Z,2.80
2022-09-20T02:10:14.532Z,3.14
2022-09-20T02:10:52.562Z,2.92
2022-09-20T02:11:57.201Z,2.92
2022-09-20T02:12:33.886Z,3.06
2022-09-20T02:13:06.407Z,3.36
2022-09-20T02:13:41.384Z,2.88
2022-09-20T02:14:31.607Z,3.20
2022-09-20T02:15:03.848Z,3.16
2022-09-20T02:15:54.382Z,3.20
2022-09-20T02:16:35.479Z,2.98
2022-09-20T02:17:14.262Z,3.14
2022-09-20T02:18:04.112Z,3.15
2022-09-20T02:18:36.577Z,2.95
2022-09-20T02:19:11.800Z,2.94
2022-09-20T02:20:02.436Z,2.82
2022-09-20T02:20:40.837Z,3.14
2022-09-20T02:21:25.914Z,3.18
2022-09-20T02:22:06.825Z,2.74
2022-09-20T02:22:41.826Z,2.80
2022-09-20T02:23:19.904Z,3.10
2022-09-20T02:23:59.821Z,3.20
2022-09-20T02:24:47.062Z,2.60
2022-09-20T02:25:22.206Z,3.44
2022-09-20T02:26:00.250Z,2.70
2022-09-20T02:26:44.501Z,2.85
2022-09-20T02:27:35.238Z,2.86
2022-09-20T02:28:13.336Z,3.00
2022-09-20T02:28:49.630Z,3.22
2022-09-20T02:29:48.217Z,3.16
2022-09-20T02:30:21.046Z,2.88
2022-09-20T02:31:00.623Z,2.92
2022-09-20T02:31:33.028Z,2.97
2022-09-20T02:32:25.350Z,3.04
2022-09-20T02:33:16.141Z,2.60
2022-09-20T02:33:51.638Z,2.90
2022-09-20T02:34:23.991Z,2.58
2022-09-20T02:34:56.311Z,2.78
2022-09-20T02:35:37.406Z,2.62
2022-09-20T02:36:12.397Z,2.22
2022-09-20T02:36:59.575Z,2.60
2022-09-20T02:37:43.908Z,2.30
2022-09-20T02:38:28.334Z,2.74
2022-09-20T02:39:15.979Z,2.34
2022-09-20T02:40:01.529Z,2.90
2022-09-20T02:40:36.648Z,2.82
2022-09-20T02:41:33.550Z,3.28
2022-09-20T02:42:21.541Z,2.68
2022-09-20T02:42:59.894Z,2.64
2022-09-20T02:43:47.452Z,2.95
2022-09-20T02:44:28.226Z,2.80
2022-09-20T02:45:07.097Z,3.04
2022-09-20T02:45:46.710Z,2.70
2022-09-20T02:46:57.323Z,2.78
2022-09-20T02:47:43.570Z,2.52
2022-09-20T02:48:20.169Z,3.14
2022-09-20T02:49:01.354Z,3.33
2022-09-20T02:49:46.287Z,2.92
2022-09-20T02:50:24.766Z,3.16
2022-09-20T02:51:02.479Z,3.36
2022-09-20T02:51:43.076Z,3.40
2022-09-20T02:52:38.344Z,2.56
2022-09-20T02:53:10.691Z,2.78
2022-09-20T02:53:43.083Z,2.75
2022-09-20T02:54:34.265Z,2.97
2022-09-20T02:55:17.784Z,2.80
2022-09-20T02:56:02.488Z,2.88
2022-09-20T02:57:01.063Z,2.60
2022-09-20T02:57:33.937Z,2.80
2022-09-20T02:58:21.360Z,2.94
2022-09-20T02:59:03.340Z,2.92
2022-09-20T02:59:43.398Z,2.80
2022-09-20T03:00:59.913Z,2.90
2022-09-20T03:01:35.309Z,2.92
2022-09-20T03:02:20.131Z,2.70
2022-09-20T03:02:52.633Z,3.20
2022-09-20T03:03:33.666Z,3.06
2022-09-20T03:04:24.680Z,3.45
2022-09-20T03:04:59.878Z,2.60
2022-09-20T03:05:36.330Z,2.82
2022-09-20T03:06:23.473Z,2.98
2022-09-20T03:07:01.284Z,2.94
2022-09-20T03:07:51.738Z,2.98
2022-09-20T03:08:26.758Z,3.02
2022-09-20T03:09:11.276Z,2.94
2022-09-20T03:09:47.978Z,3.00
2022-09-20T03:10:43.717Z,2.68
2022-09-20T03:11:34.251Z,2.60
2022-09-20T03:12:24.950Z,2.64
2022-09-20T03:13:00.279Z,3.14
2022-09-20T03:13:32.714Z,3.10
2022-09-20T03:14:10.724Z,2.50
2022-09-20T03:14:52.409Z,3.00
2022-09-20T03:15:42.856Z,3.16
2022-09-20T03:16:33.604Z,2.78
2022-09-20T03:17:14.263Z,2.90
2022-09-20T03:17:49.275Z,2.60
2022-09-20T03:18:33.433Z,2.98
2022-09-20T03:19:33.816Z,2.78
2022-09-20T03:20:06.621Z,2.80
2022-09-20T03:20:51.002Z,2.92
2022-09-20T03:21:35.305Z,3.52
2022-09-20T03:22:19.850Z,3.20
2022-09-20T03:22:58.474Z,3.08
2022-09-20T03:23:49.230Z,2.64
2022-09-20T03:24:32.656Z,2.50
2022-09-20T03:25:05.279Z,2.46
2022-09-20T03:25:50.782Z,2.56
2022-09-20T03:26:41.232Z,2.84
2022-09-20T03:27:31.842Z,3.00
2022-09-20T03:28:15.477Z,2.70
2022-09-20T03:28:55.427Z,2.66
2022-09-20T03:29:47.509Z,3.13
2022-09-20T03:30:20.210Z,2.98
2022-09-20T03:31:04.908Z,3.10
2022-09-20T03:31:55.562Z,2.90
2022-09-20T03:32:46.652Z,3.50
2022-09-20T03:33:24.647Z,3.64
2022-09-20T03:34:02.770Z,3.26
2022-09-20T03:34:37.866Z,3.50
2022-09-20T03:35:19.270Z,3.56
2022-09-20T03:36:00.414Z,3.40
2022-09-20T03:36:38.568Z,3.46
2022-09-20T03:37:11.156Z,3.60
2022-09-20T03:37:46.187Z,3.62
2022-09-20T03:38:18.657Z,3.40
2022-09-20T03:38:54.111Z,3.32
2022-09-20T03:39:42.040Z,3.28
2022-09-20T03:40:34.277Z,3.26
2022-09-20T03:41:06.762Z,3.66
2022-09-20T03:41:47.836Z,3.82
2022-09-20T03:42:20.194Z,3.74
2022-09-20T03:42:53.302Z,3.44
2022-09-20T03:43:26.149Z,3.58
2022-09-20T03:43:58.381Z,4.04
2022-09-20T03:44:34.377Z,3.56
2022-09-20T03:45:06.675Z,3.30
2022-09-20T03:45:50.739Z,2.18
2022-09-20T03:46:30.225Z,2.86
2022-09-20T03:47:14.177Z,2.90
2022-09-20T03:47:58.753Z,2.90
2022-09-20T03:48:34.018Z,3.06
2022-09-20T03:49:25.282Z,3.14
2022-09-20T03:50:00.546Z,2.90
2022-09-20T03:50:38.636Z,3.08
2022-09-20T03:51:14.233Z,3.60
2022-09-20T03:51:46.553Z,3.40
2022-09-20T03:52:39.494Z,3.08
2022-09-20T03:53:30.487Z,2.78
2022-09-20T03:54:21.480Z,2.96
2022-09-20T03:55:17.000Z,3.00
2022-09-20T03:55:52.306Z,3.22
2022-09-20T03:56:33.530Z,3.66
2022-09-20T03:57:23.811Z,2.88
2022-09-20T03:57:56.552Z,2.42
2022-09-20T03:58:49.606Z,3.20
2022-09-20T03:59:40.388Z,2.62
2022-09-20T04:00:15.994Z,2.52
2022-09-20T04:00:57.478Z,2.66
2022-09-20T04:01:45.466Z,2.24
2022-09-20T04:02:23.490Z,2.62
2022-09-20T04:03:00.731Z,2.66
2022-09-20T04:03:46.228Z,2.70
2022-09-20T04:04:30.350Z,2.60
2022-09-20T04:05:07.315Z,2.02
2022-09-20T04:05:42.214Z,2.68
2022-09-20T04:06:14.514Z,2.74
2022-09-20T04:07:09.998Z,3.03
2022-09-20T04:07:48.302Z,2.74
2022-09-20T04:08:26.798Z,2.98
2022-09-20T04:09:17.747Z,2.70
2022-09-20T04:09:55.989Z,3.00
2022-09-20T04:10:59.336Z,2.82
2022-09-20T04:11:37.976Z,2.88
2022-09-20T04:12:23.232Z,2.82
2022-09-20T04:13:10.790Z,2.88
2022-09-20T04:13:49.280Z,2.70
2022-09-20T04:14:27.440Z,2.26
2022-09-20T04:15:21.262Z,2.74
2022-09-20T04:16:02.246Z,2.72
2022-09-20T04:16:34.881Z,2.92
2022-09-20T04:17:16.314Z,3.02
2022-09-20T04:17:48.776Z,2.88
2022-09-20T04:18:27.633Z,3.52
2022-09-20T04:19:15.446Z,3.10
2022-09-20T04:19:53.906Z,2.70
2022-09-20T04:20:33.188Z,2.67
2022-09-20T04:21:05.473Z,2.83
2022-09-20T04:21:43.651Z,2.66
2022-09-20T04:22:16.596Z,2.78
2022-09-20T04:22:51.648Z,3.20
2022-09-20T04:23:42.419Z,2.80
2022-09-20T04:24:23.789Z,2.88
2022-09-20T04:24:59.262Z,2.86
2022-09-20T04:25:41.760Z,2.70
2022-09-20T04:26:20.590Z,2.74
2022-09-20T04:26:58.188Z,2.47
2022-09-20T04:27:30.558Z,2.70
2022-09-20T04:28:09.781Z,3.00
2022-09-20T04:29:08.958Z,3.00
2022-09-20T04:30:17.142Z,2.83
2022-09-20T04:30:51.883Z,3.50
2022-09-20T04:31:44.511Z,3.10
2022-09-20T04:32:31.040Z,3.06
2022-09-20T04:33:06.215Z,3.60
2022-09-20T04:33:41.707Z,3.58
2022-09-20T04:34:19.366Z,3.48
2022-09-20T04:35:16.078Z,3.40
2022-09-20T04:36:25.942Z,3.44
2022-09-20T04:36:59.551Z,3.00
2022-09-20T04:37:33.724Z,3.35
2022-09-20T04:38:09.609Z,3.54
2022-09-20T04:38:42.264Z,3.60
2022-09-20T04:39:14.566Z,3.42
2022-09-20T04:39:49.581Z,3.70
2022-09-20T04:40:24.751Z,4.06
2022-09-20T04:41:00.356Z,4.13
2022-09-20T04:41:38.838Z,3.60
2022-09-20T04:42:16.947Z,3.70
2022-09-20T04:43:13.086Z,3.50
2022-09-20T04:43:54.386Z,3.80
2022-09-20T04:44:27.932Z,3.20
2022-09-20T04:45:08.097Z,3.50
2022-09-20T04:45:58.624Z,3.36
2022-09-20T04:46:36.970Z,4.00
2022-09-20T04:47:21.722Z,4.16
2022-09-20T04:47:54.030Z,4.00
2022-09-20T04:48:45.045Z,4.25
2022-09-20T04:49:35.736Z,4.38
2022-09-20T04:50:26.443Z,5.32
2022-09-20T04:51:21.087Z,6.96
2022-09-20T04:51:54.453Z,5.74
2022-09-20T04:52:29.607Z,6.64
2022-09-20T04:53:19.157Z,7.95
2022-09-20T04:53:57.782Z,8.02
2022-09-20T04:54:48.959Z,9.20
2022-09-20T04:55:24.164Z,7.78
2022-09-20T04:55:59.290Z,7.72
2022-09-20T04:56:46.940Z,8.20
2022-09-20T04:57:19.193Z,8.30
2022-09-20T04:58:10.201Z,6.96
2022-09-20T04:59:01.036Z,8.24
2022-09-20T04:59:53.454Z,7.26
2022-09-20T05:00:30.419Z,7.38
2022-09-20T05:01:02.874Z,6.25
2022-09-20T05:01:44.299Z,6.28
2022-09-20T05:02:34.567Z,5.63
2022-09-20T05:03:06.909Z,4.82
2022-09-20T05:03:46.608Z,5.44
2022-09-20T05:04:45.492Z,5.10
2022-09-20T05:05:36.946Z,5.16
2022-09-20T05:06:28.314Z,5.58
2022-09-20T05:07:09.737Z,5.60
2022-09-20T05:07:59.006Z,5.76
2022-09-20T05:08:49.990Z,5.82
2022-09-20T05:09:41.352Z,5.86
2022-09-20T05:10:15.686Z,5.70
2022-09-20T05:10:53.945Z,5.95
2022-09-20T05:11:47.416Z,5.42
2022-09-20T05:12:28.322Z,5.60
2022-09-20T05:13:05.449Z,4.70
2022-09-20T05:13:38.481Z,5.64
2022-09-20T05:14:13.991Z,5.10
2022-09-20T05:15:01.322Z,6.07
2022-09-20T05:15:53.054Z,4.76
2022-09-20T05:16:44.215Z,5.02
2022-09-20T05:17:22.594Z,4.53
2022-09-20T05:17:54.974Z,5.75
2022-09-20T05:18:39.394Z,4.68
2022-09-20T05:19:12.412Z,5.30
2022-09-20T05:19:56.173Z,4.98
2022-09-20T05:20:51.620Z,5.10
2022-09-20T05:21:24.556Z,4.40
2022-09-20T05:22:20.002Z,4.64
2022-09-20T05:23:10.832Z,4.96
2022-09-20T05:24:01.533Z,4.28
2022-09-20T05:24:53.002Z,3.84
2022-09-20T05:25:38.577Z,4.06
2022-09-20T05:26:10.836Z,3.90
2022-09-20T05:26:59.883Z,3.92
2022-09-20T05:27:38.115Z,3.83
2022-09-20T05:28:16.118Z,3.80
2022-09-20T05:28:51.277Z,3.10
2022-09-20T05:29:42.584Z,3.42
2022-09-20T05:30:30.350Z,4.08
2022-09-20T05:31:11.782Z,4.94
2022-09-20T05:31:50.087Z,5.08
2022-09-20T05:32:28.173Z,5.06
2022-09-20T05:33:06.327Z,4.44
2022-09-20T05:34:02.299Z,4.03
2022-09-20T05:34:42.709Z,4.20
2022-09-20T05:35:15.401Z,4.04
2022-09-20T05:35:55.298Z,3.40
2022-09-20T05:36:41.753Z,3.42
2022-09-20T05:37:16.750Z,3.48
2022-09-20T05:38:01.854Z,3.15
2022-09-20T05:38:48.890Z,3.34
2022-09-20T05:39:38.673Z,3.05
2022-09-20T05:40:29.572Z,3.00
2022-09-20T05:41:17.718Z,3.12
2022-09-20T05:41:56.514Z,2.76
2022-09-20T05:42:40.400Z,2.83
2022-09-20T05:43:14.402Z,2.80
2022-09-20T05:44:07.607Z,3.03
2022-09-20T05:44:51.786Z,2.98
2022-09-20T05:45:26.686Z,3.40
2022-09-20T05:46:16.510Z,3.28
2022-09-20T05:46:54.724Z,2.97
2022-09-20T05:47:29.662Z,3.16
2022-09-20T05:48:02.001Z,3.10
2022-09-20T05:48:39.940Z,3.70
2022-09-20T05:49:24.048Z,3.38
2022-09-20T05:50:15.770Z,4.13
2022-09-20T05:51:06.275Z,3.40
2022-09-20T05:51:54.148Z,3.88
2022-09-20T05:52:44.879Z,4.43
2022-09-20T05:53:20.159Z,3.20
2022-09-20T05:53:58.620Z,2.94
2022-09-20T05:54:56.846Z,3.28
2022-09-20T05:55:38.666Z,3.05
2022-09-20T05:56:17.130Z,3.40
2022-09-20T05:57:07.520Z,3.24
2022-09-20T05:57:50.210Z,3.40
2022-09-20T05:58:32.312Z,3.55
2022-09-20T05:59:22.904Z,3.20
2022-09-20T06:00:13.792Z,3.10
2022-09-20T06:00:49.819Z,2.97
2022-09-20T06:01:26.878Z,3.22
2022-09-20T06:02:07.745Z,3.40
2022-09-20T06:02:48.475Z,3.86
2022-09-20T06:03:26.436Z,3.42
2022-09-20T06:04:08.505Z,3.72
2022-09-20T06:05:00.493Z,3.36
2022-09-20T06:05:50.302Z,3.28
2022-09-20T06:06:38.722Z,3.40
2022-09-20T06:07:38.902Z,3.40
2022-09-20T06:08:14.006Z,3.06
2022-09-20T06:08:58.217Z,3.38
2022-09-20T06:09:53.528Z,3.25
2022-09-20T06:10:31.271Z,3.74
2022-09-20T06:11:14.200Z,3.10
2022-09-20T06:11:46.914Z,3.16
2022-09-20T06:12:35.885Z,3.20
2022-09-20T06:13:20.872Z,3.96
2022-09-20T06:13:53.503Z,3.64
2022-09-20T06:15:00.283Z,3.54
2022-09-20T06:15:45.075Z,3.33
2022-09-20T06:16:25.414Z,3.30
2022-09-20T06:17:16.487Z,3.26
2022-09-20T06:17:55.740Z,3.40
2022-09-20T06:18:31.727Z,3.50
2022-09-20T06:19:22.779Z,3.58
2022-09-20T06:20:01.246Z,3.24
2022-09-20T06:20:37.646Z,3.38
2022-09-20T06:21:21.835Z,3.88
2022-09-20T06:21:55.775Z,3.32
2022-09-20T06:22:31.082Z,3.35
2022-09-20T06:23:04.706Z,5.42
2022-09-20T06:23:37.248Z,3.55
2022-09-20T06:24:25.108Z,3.72
2022-09-20T06:25:11.246Z,3.15
2022-09-20T06:25:47.874Z,3.88
2022-09-20T06:26:23.827Z,3.80
2022-09-20T06:26:57.145Z,3.72
2022-09-20T06:27:39.721Z,3.70
2022-09-20T06:28:17.812Z,3.40
2022-09-20T06:28:59.667Z,2.92
2022-09-20T06:29:36.862Z,3.50
2022-09-20T06:30:16.127Z,3.20
2022-09-20T06:30:52.122Z,3.17
2022-09-20T06:31:24.548Z,3.42
2022-09-20T06:31:56.934Z,3.28
2022-09-20T06:32:29.219Z,3.38
2022-09-20T06:33:13.258Z,3.58
2022-09-20T06:33:51.246Z,3.53
2022-09-20T06:34:23.589Z,3.30
2022-09-20T06:34:56.083Z,3.67
2022-09-20T06:35:32.316Z,3.42
2022-09-20T06:36:29.784Z,3.70
2022-09-20T06:37:32.992Z,3.55
2022-09-20T06:38:31.134Z,3.55
2022-09-20T06:39:24.950Z,3.10
2022-09-20T06:40:26.570Z,2.92
2022-09-20T06:41:18.092Z,3.00
2022-09-20T06:41:51.652Z,3.13
2022-09-20T06:42:27.001Z,3.38
2022-09-20T06:43:00.995Z,3.15
2022-09-20T06:43:34.112Z,3.10
2022-09-20T06:44:07.192Z,2.58
2022-09-20T06:44:41.668Z,2.90
2022-09-20T06:45:14.107Z,3.20
2022-09-20T06:45:48.112Z,3.20
2022-09-20T06:46:21.029Z,3.20
2022-09-20T06:46:54.653Z,2.92
2022-09-20T06:47:27.223Z,2.75
2022-09-20T06:48:02.414Z,3.35
2022-09-20T06:48:34.746Z,3.00
2022-09-20T06:49:09.720Z,3.08
2022-09-20T06:49:42.686Z,3.05
2022-09-20T06:50:16.663Z,3.13
2022-09-20T06:50:49.090Z,3.28
2022-09-20T06:51:22.630Z,3.40
2022-09-20T06:51:56.070Z,3.17
2022-09-20T06:52:28.621Z,3.28
2022-09-20T06:53:00.923Z,3.10
2022-09-20T06:53:35.618Z,2.90
2022-09-20T06:54:11.673Z,2.85
2022-09-20T06:54:46.136Z,3.05
2022-09-20T06:55:27.186Z,3.42
2022-09-20T06:56:01.999Z,3.50
2022-09-20T06:56:36.594Z,3.30
2022-09-20T06:57:10.745Z,3.47
2022-09-20T06:57:43.508Z,3.05
2022-09-20T06:58:15.847Z,3.10
2022-09-20T06:58:48.336Z,2.75
2022-09-20T06:59:20.857Z,3.05
2022-09-20T06:59:53.185Z,3.28
2022-09-20T07:00:25.665Z,2.75
2022-09-20T07:00:58.083Z,2.55
2022-09-20T07:01:31.574Z,2.97
2022-09-20T07:02:04.059Z,3.00
2022-09-20T07:02:36.526Z,3.22
2022-09-20T07:03:08.928Z,3.90
2022-09-20T07:03:41.798Z,3.55
2022-09-20T07:04:14.171Z,2.82
2022-09-20T07:04:46.483Z,2.50
2022-09-20T07:05:22.292Z,3.08
2022-09-20T07:05:54.584Z,3.47
2022-09-20T07:06:29.446Z,3.22
2022-09-20T07:07:06.111Z,3.72
2022-09-20T07:07:41.235Z,3.30
2022-09-20T07:08:13.911Z,3.17
2022-09-20T07:08:46.883Z,3.50
2022-09-20T07:09:19.222Z,3.15
2022-09-20T07:09:51.520Z,3.92
2022-09-20T07:10:23.965Z,3.20
2022-09-20T07:10:56.449Z,3.00
2022-09-20T07:11:28.937Z,3.05
2022-09-20T07:12:01.293Z,3.70
2022-09-20T07:12:35.290Z,3.03
2022-09-20T07:13:07.738Z,3.15
2022-09-20T07:13:40.056Z,2.92
2022-09-20T07:14:12.686Z,3.38
2022-09-20T07:14:45.000Z,3.40
2022-09-20T07:15:17.253Z,3.15
2022-09-20T07:15:50.791Z,3.30
2022-09-20T07:16:23.254Z,3.42
2022-09-20T07:16:56.056Z,3.92
2022-09-20T07:17:28.358Z,5.13
2022-09-20T07:18:01.059Z,4.50
2022-09-20T07:18:33.777Z,3.13
2022-09-20T07:19:06.768Z,3.00
2022-09-20T07:19:39.110Z,3.15
2022-09-20T07:20:11.839Z,3.50
2022-09-20T07:20:44.917Z,3.05
2022-09-20T07:21:18.256Z,4.20
2022-09-20T07:21:50.953Z,6.03
2022-09-20T07:22:23.363Z,3.53
2022-09-20T07:22:55.698Z,6.75
2022-09-20T07:23:29.896Z,4.28
2022-09-20T07:24:02.769Z,3.47
2022-09-20T07:24:35.227Z,4.45
2022-09-20T07:25:07.827Z,3.90
2022-09-20T07:25:40.613Z,3.58
2022-09-20T07:26:20.444Z,3.20
2022-09-20T07:26:57.071Z,2.80
2022-09-20T07:27:29.770Z,3.22
2022-09-20T07:28:02.290Z,3.50
2022-09-20T07:28:35.480Z,2.85
2022-09-20T07:29:08.113Z,3.17
2022-09-20T07:29:41.318Z,5.22
2022-09-20T07:30:14.628Z,5.40
2022-09-20T07:30:47.674Z,5.50
2022-09-20T07:31:20.921Z,3.92
2022-09-20T07:31:53.708Z,3.25
2022-09-20T07:32:27.042Z,2.70
2022-09-20T07:33:00.820Z,4.28
2022-09-20T07:33:33.141Z,3.60
2022-09-20T07:34:06.393Z,4.88
2022-09-20T07:34:38.730Z,3.95
2022-09-20T07:35:11.849Z,3.97
2022-09-20T07:35:44.118Z,4.00
2022-09-20T07:36:16.826Z,4.10
2022-09-20T07:36:49.595Z,4.05
2022-09-20T07:37:22.425Z,4.30
2022-09-20T07:37:58.106Z,4.00
2022-09-20T07:38:30.564Z,3.20
2022-09-20T07:39:03.706Z,4.88
2022-09-20T07:39:36.126Z,3.97
2022-09-20T07:40:09.760Z,3.47
2022-09-20T07:40:42.086Z,3.45
2022-09-20T07:41:14.346Z,2.70
2022-09-20T07:41:48.673Z,3.08
2022-09-20T07:42:21.207Z,3.50
2022-09-20T07:42:56.193Z,3.30
2022-09-20T07:43:29.779Z,2.83
2022-09-20T07:44:21.092Z,3.00
2022-09-20T07:44:53.422Z,3.13
2022-09-20T07:45:25.963Z,3.50
2022-09-20T07:45:59.617Z,3.33
2022-09-20T07:46:36.220Z,3.10
2022-09-20T07:47:10.397Z,3.28
2022-09-20T07:47:45.080Z,3.05
2022-09-20T07:48:18.130Z,2.92
2022-09-20T07:48:50.598Z,3.42
2022-09-20T07:49:23.292Z,3.20
2022-09-20T07:49:55.670Z,3.80
2022-09-20T07:50:28.103Z,4.40
2022-09-20T07:51:08.539Z,4.28
2022-09-20T07:51:41.693Z,4.13
2022-09-20T07:52:14.964Z,3.65
2022-09-20T07:52:47.384Z,3.97
2022-09-20T07:53:19.782Z,3.83
2022-09-20T07:53:54.397Z,3.45
2022-09-20T07:54:27.780Z,2.97
2022-09-20T07:55:00.040Z,3.15
2022-09-20T07:55:32.512Z,3.25
2022-09-20T07:56:12.032Z,2.75
2022-09-20T07:56:45.068Z,3.60
2022-09-20T07:57:17.544Z,3.42
2022-09-20T07:57:49.952Z,3.67
2022-09-20T07:58:22.390Z,4.00
2022-09-20T07:58:54.941Z,3.35
2022-09-20T07:59:27.423Z,3.13
2022-09-20T07:59:59.706Z,3.35
2022-09-20T08:00:32.034Z,3.42
2022-09-20T08:01:05.634Z,2.50
2022-09-20T08:01:39.065Z,4.03
2022-09-20T08:02:15.204Z,2.67
2022-09-20T08:02:47.587Z,2.58
2022-09-20T08:03:20.179Z,2.92
2022-09-20T08:03:52.494Z,2.67
2022-09-20T08:04:24.988Z,3.03
2022-09-20T08:04:57.369Z,3.15
2022-09-20T08:05:29.690Z,3.30
2022-09-20T08:06:02.994Z,3.10
2022-09-20T08:06:39.028Z,3.20
2022-09-20T08:07:12.723Z,2.97
2022-09-20T08:07:45.135Z,3.47
2022-09-20T08:08:18.241Z,2.97
2022-09-20T08:08:51.854Z,2.60
2022-09-20T08:09:24.685Z,2.53
2022-09-20T08:09:57.034Z,3.08
2022-09-20T08:10:29.372Z,2.70
2022-09-20T08:11:02.985Z,3.00
2022-09-20T08:11:36.394Z,3.50
2022-09-20T08:14:09.602Z,2.50
2022-09-20T08:14:41.958Z,2.83
2022-09-20T08:15:14.342Z,3.40
2022-09-20T08:15:48.678Z,3.13
2022-09-20T08:16:21.948Z,2.65
2022-09-20T08:16:54.960Z,3.17
2022-09-20T08:17:27.384Z,2.58
2022-09-20T08:17:59.749Z,3.03
2022-09-20T08:18:32.390Z,3.17
2022-09-20T08:19:04.846Z,2.78
2022-09-20T08:19:40.285Z,2.70
2022-09-20T08:20:12.534Z,2.95
2022-09-20T08:20:44.898Z,2.60
2022-09-20T08:21:17.843Z,3.10
2022-09-20T08:21:51.586Z,3.08
2022-09-20T08:22:24.703Z,3.47
2022-09-20T08:23:21.989Z,3.00
2022-09-20T08:23:51.503Z,2.72
2022-09-20T08:24:26.359Z,2.95
2022-09-20T08:24:58.991Z,2.78
2022-09-20T08:25:31.599Z,2.75
2022-09-20T08:26:04.581Z,2.80
2022-09-20T08:26:37.296Z,3.03
2022-09-20T08:27:09.592Z,2.70
2022-09-20T08:27:42.276Z,3.10
2022-09-20T08:28:14.524Z,3.00
2022-09-20T08:28:47.527Z,3.00
2022-09-20T08:29:20.063Z,2.95
2022-09-20T08:29:55.608Z,3.00
2022-09-20T08:30:28.156Z,3.13
2022-09-20T08:31:07.788Z,3.47
2022-09-20T08:31:42.556Z,2.40
2022-09-20T08:32:15.249Z,2.80
2022-09-20T08:32:47.675Z,2.55
2022-09-20T08:33:19.952Z,2.60
2022-09-20T08:33:52.944Z,2.83
2022-09-20T08:34:25.211Z,2.97
2022-09-20T08:34:57.560Z,3.28